East Elmore, Vermont
Current Conditions -  °F | °C
As of 4:54 PM on Thursday 18 Dec 2014 (Local Time) from KMVL Reporting Station
Light Snow Light Snow  
Wind Chill: 25°   Ceiling: 1400
Heat Index: 31°   Visibility: 6mi
Dew Point: 26°   Wind: 6mph
Humidity: 82%   Direction: 320°NW
Pressure: 29.86"   Gusts: NA
Location:  44.5359°N, 72.4842°W
Report Text: KMVL 182154Z AUTO 32005KT 6SM -SN OVC014 M01/M03 A2986 RMK AO2 UPB03E12B35E52SNE03B12E22B52 SLP121 P0000 T10061033 TSNO
Loading
Personal Weather Stations






























Interactive Weather Map New forecast layout! Learn more

10-Day Weather Forecast

Advertisements
Track Severe Weather on mobile